Time;durP1;ratioP1;P1;durP2;ratioP2;P2;SDS_P1;SDS_P2;PMS_P1;PMS_P2;Temp;Humidity;BMP_temperature;BMP_pressure;BME280_temperature;BME280_humidity;BME280_pressure;Samples;Min_cycle;Max_cycle;Signal;HPM_P1;HPM_P2
2022/10/03 00:01:56;;;;;;;6.30;3.10;;;;;;;9.41;97.42;96386.40;108298;1271;23575;-82
2022/10/03 00:04:48;;;;;;;7.70;2.70;;;;;;;9.40;97.19;96398.26;108242;1271;25251;-82
2022/10/03 00:07:38;;;;;;;7.60;3.30;;;;;;;9.40;97.14;96403.86;108181;1271;25364;-82
2022/10/03 00:10:22;;;;;;;5.80;2.80;;;;;;;9.39;96.87;96402.02;108190;1271;28171;-81
2022/10/03 00:13:14;;;;;;;7.50;3.00;;;;;;;9.37;96.97;96411.35;108274;1269;22688;-81
2022/10/03 00:15:54;;;;;;;5.80;3.00;;;;;;;9.36;96.81;96403.95;108229;1269;22708;-82
2022/10/03 00:18:38;;;;;;;5.90;3.20;;;;;;;9.34;96.70;96407.25;108225;1271;28543;-81
2022/10/03 00:21:21;;;;;;;5.50;2.30;;;;;;;9.32;96.56;96414.63;108272;1269;24435;-82
2022/10/03 00:24:05;;;;;;;4.90;2.30;;;;;;;9.31;96.53;96410.40;108224;1271;24350;-82
2022/10/03 00:26:46;;;;;;;4.70;2.50;;;;;;;9.29;96.56;96410.98;108230;1270;22585;-82
2022/10/03 00:29:43;;;;;;;5.00;2.60;;;;;;;9.27;96.59;96410.24;108233;1268;30393;-82
2022/10/03 00:32:42;;;;;;;4.60;2.20;;;;;;;9.27;96.69;96399.67;108311;1268;22538;-82
2022/10/03 00:35:30;;;;;;;6.90;2.40;;;;;;;9.25;96.80;96398.36;108289;1268;22872;-82
2022/10/03 00:38:18;;;;;;;5.10;2.00;;;;;;;9.23;96.95;96398.86;108316;1268;22558;-82
2022/10/03 00:41:13;;;;;;;3.50;2.30;;;;;;;9.22;96.83;96391.50;108280;1268;22527;-82
2022/10/03 00:44:17;;;;;;;4.50;2.40;;;;;;;9.22;96.73;96398.80;108251;1271;22773;-81
2022/10/03 00:47:32;;;;;;;4.90;2.10;;;;;;;9.22;96.81;96399.27;108296;1268;25957;-82
2022/10/03 00:50:26;;;;;;;4.30;2.20;;;;;;;9.24;96.73;96395.88;108129;1271;37370;-82
2022/10/03 00:53:17;;;;;;;9.30;2.60;;;;;;;9.23;96.83;96396.52;108212;1271;24060;-82
2022/10/03 00:56:01;;;;;;;4.10;2.20;;;;;;;9.22;96.71;96397.38;108227;1271;22558;-82
2022/10/03 00:58:54;;;;;;;3.90;2.20;;;;;;;9.22;96.39;96399.02;108145;1271;35063;-82
2022/10/03 01:01:38;;;;;;;5.10;2.50;;;;;;;9.23;96.18;96390.77;108222;1271;24363;-82
2022/10/03 01:04:30;;;;;;;5.40;2.60;;;;;;;9.21;96.07;96401.77;108219;1271;22704;-82
2022/10/03 01:07:15;;;;;;;4.50;2.10;;;;;;;9.21;95.87;96406.27;108266;1269;24930;-82
2022/10/03 01:10:00;;;;;;;3.90;1.90;;;;;;;9.21;95.74;96401.84;108142;1271;29995;-83
2022/10/03 01:13:06;;;;;;;4.70;2.60;;;;;;;9.19;96.07;96413.80;108183;1271;23190;-82
2022/10/03 01:15:49;;;;;;;7.30;3.60;;;;;;;9.16;96.61;96413.46;108164;1271;22532;-82
2022/10/03 01:18:30;;;;;;;4.30;2.30;;;;;;;9.12;97.01;96395.64;108236;1270;22604;-82
2022/10/03 01:21:14;;;;;;;5.60;3.10;;;;;;;9.08;97.35;96415.23;108215;1271;23882;-82
2022/10/03 01:24:10;;;;;;;6.00;3.00;;;;;;;9.07;97.22;96417.56;108239;1270;22619;-82
2022/10/03 01:26:57;;;;;;;6.70;2.90;;;;;;;9.07;96.98;96413.98;108186;1271;22745;-82
2022/10/03 01:32:45;;;;;;;7.00;3.00;;;;;;;9.05;95.74;96402.25;108276;1270;22580;-82
2022/10/03 01:35:26;;;;;;;5.20;2.90;;;;;;;9.03;95.23;96404.64;108279;1271;22539;-82
2022/10/03 01:38:09;;;;;;;5.80;2.60;;;;;;;9.01;94.97;96400.26;108203;1271;22664;-83
2022/10/03 01:40:48;;;;;;;4.40;2.60;;;;;;;9.00;94.85;96413.79;108152;1270;28122;-82
2022/10/03 01:43:25;;;;;;;5.00;2.10;;;;;;;8.96;94.82;96405.61;108196;1270;22591;-82
2022/10/03 01:46:11;;;;;;;3.10;2.50;;;;;;;8.96;94.82;96398.48;108285;1270;25299;-82
2022/10/03 01:48:53;;;;;;;7.30;2.80;;;;;;;8.97;94.94;96401.23;108215;1270;31416;-83
2022/10/03 01:51:30;;;;;;;6.70;2.40;;;;;;;8.97;95.01;96409.31;108240;1271;22539;-82
2022/10/03 01:54:18;;;;;;;3.90;2.00;;;;;;;8.98;95.05;96399.05;108217;1271;22902;-83
2022/10/03 01:56:57;;;;;;;6.50;2.60;;;;;;;8.97;95.09;96399.04;108233;1270;22668;-82
2022/10/03 01:59:41;;;;;;;5.60;2.30;;;;;;;8.98;95.07;96389.89;108149;1271;27851;-83
2022/10/03 02:02:21;;;;;;;5.00;2.70;;;;;;;8.98;95.04;96392.33;108262;1270;22523;-82
2022/10/03 02:04:59;;;;;;;5.50;2.50;;;;;;;8.99;95.04;96382.60;108233;1270;22535;-83
2022/10/03 02:07:43;;;;;;;5.80;2.80;;;;;;;8.99;94.99;96387.04;108258;1270;22821;-83
2022/10/03 02:10:29;;;;;;;6.60;2.50;;;;;;;9.00;94.84;96382.38;108212;1271;28425;-82
2022/10/03 02:13:09;;;;;;;5.90;2.50;;;;;;;9.02;94.73;96370.76;108250;1270;24036;-83
2022/10/03 02:15:47;;;;;;;;;;;;;;;9.03;94.72;96373.27;108282;1270;24004;-83
2022/10/03 02:18:26;;;;;;;3.90;2.10;;;;;;;9.05;94.50;96373.16;108275;1271;22695;-83
2022/10/03 02:21:12;;;;;;;8.20;3.00;;;;;;;9.08;94.43;96362.83;108242;1270;24329;-83
2022/10/03 02:23:47;;;;;;;6.20;1.70;;;;;;;9.09;94.43;96365.25;108265;1270;23378;-82
2022/10/03 02:26:53;;;;;;;4.30;2.20;;;;;;;9.11;94.53;96373.48;108129;1269;184811;-83
2022/10/03 02:30:00;;;;;;;4.40;2.10;;;;;;;9.13;94.64;96376.75;108200;1270;29806;-82
2022/10/03 02:32:59;;;;;;;3.80;2.40;;;;;;;9.18;95.14;96373.39;108244;1270;24068;-83
2022/10/03 02:36:00;;;;;;;4.40;2.60;;;;;;;9.23;95.58;96375.69;108198;1271;22686;-82
2022/10/03 02:38:56;;;;;;;5.50;3.10;;;;;;;9.25;95.76;96376.61;108199;1270;28735;-82
2022/10/03 02:41:53;;;;;;;6.30;2.30;;;;;;;9.23;96.12;96375.89;108257;1270;24197;-82
2022/10/03 02:45:12;;;;;;;5.90;2.40;;;;;;;9.22;96.29;96377.70;108269;1270;23902;-82
2022/10/03 02:48:23;;;;;;;9.30;3.40;;;;;;;9.23;96.13;96388.37;107993;1274;22547;-82
2022/10/03 02:51:25;;;;;;;7.50;3.10;;;;;;;9.26;96.00;96383.91;108008;1272;22663;-82
2022/10/03 02:54:27;;;;;;;4.10;2.70;;;;;;;9.26;96.05;96379.63;108182;1270;22584;-83
2022/10/03 02:57:33;;;;;;;8.80;3.90;;;;;;;9.23;96.27;96383.40;108186;1270;22531;-82
2022/10/03 03:00:15;;;;;;;8.60;3.60;;;;;;;9.20;96.38;96378.20;108191;1270;30855;-82
2022/10/03 03:03:12;;;;;;;5.90;3.20;;;;;;;9.18;96.36;96386.26;108275;1270;22548;-82
2022/10/03 03:06:16;;;;;;;5.50;3.00;;;;;;;9.19;96.14;96377.05;108317;1270;22672;-82
2022/10/03 03:09:36;;;;;;;5.90;3.10;;;;;;;9.18;95.97;96373.83;108229;1268;26075;-83
2022/10/03 03:12:49;;;;;;;5.90;2.70;;;;;;;9.20;95.92;96373.59;108340;1268;22559;-83
2022/10/03 03:15:58;;;;;;;4.10;2.50;;;;;;;9.19;96.08;96378.73;108312;1268;22530;-82
2022/10/03 03:18:36;;;;;;;4.50;2.20;;;;;;;9.18;95.84;96376.57;108250;1268;29951;-82
2022/10/03 03:21:27;;;;;;;4.40;1.70;;;;;;;9.19;94.75;96355.67;108243;1269;22526;-83
2022/10/03 03:24:08;;;;;;;;;;;;;;;9.20;92.00;96360.84;108277;1270;22519;-83
2022/10/03 03:27:07;;;;;;;5.00;1.30;;;;;;;9.19;91.13;96354.50;108222;1270;25363;-83
2022/10/03 03:29:48;;;;;;;4.00;1.20;;;;;;;9.17;90.68;96370.92;108110;1268;27933;-82
2022/10/03 03:32:33;;;;;;;11.40;1.30;;;;;;;9.13;90.06;96366.54;108286;1270;22558;-82
2022/10/03 03:35:18;;;;;;;1.50;1.00;;;;;;;9.14;89.16;96366.95;108337;1268;22546;-82
2022/10/03 03:37:59;;;;;;;3.00;1.60;;;;;;;9.14;89.24;96376.21;108330;1268;22528;-82
2022/10/03 03:40:43;;;;;;;3.30;1.40;;;;;;;9.11;90.05;96373.54;108212;1270;25367;-82
2022/10/03 03:43:46;;;;;;;4.30;1.70;;;;;;;9.05;90.99;96362.42;108235;1270;22680;-82
2022/10/03 03:46:31;;;;;;;3.40;2.10;;;;;;;8.99;92.00;96373.02;108274;1270;24364;-83
2022/10/03 03:49:28;;;;;;;3.70;2.40;;;;;;;8.97;93.03;96367.65;108242;1268;22545;-83
2022/10/03 03:52:15;;;;;;;4.30;2.60;;;;;;;9.00;93.70;96374.55;108317;1268;22554;-84
2022/10/03 03:55:08;;;;;;;4.30;2.60;;;;;;;9.01;94.40;96369.43;108331;1268;23254;-83
2022/10/03 03:57:58;;;;;;;6.40;2.50;;;;;;;8.99;95.11;96374.98;108302;1268;22553;-82
2022/10/03 04:00:52;;;;;;;5.70;2.80;;;;;;;8.99;95.57;96379.42;108184;1270;26275;-82
2022/10/03 04:03:42;;;;;;;7.20;3.10;;;;;;;9.00;96.27;96372.06;108206;1270;22551;-82
2022/10/03 04:06:41;;;;;;;8.70;3.40;;;;;;;9.00;96.50;96363.71;108259;1270;25959;-82
2022/10/03 04:09:31;;;;;;;4.20;2.20;;;;;;;8.99;96.72;96354.67;108219;1268;22524;-83
2022/10/03 04:12:18;;;;;;;4.10;1.80;;;;;;;9.05;95.80;96357.02;108344;1268;22548;-82
2022/10/03 04:15:25;;;;;;;5.20;2.60;;;;;;;9.11;95.20;96362.85;108234;1270;22530;-83
2022/10/03 04:21:23;;;;;;;6.50;3.20;;;;;;;9.10;95.37;96367.24;108338;1268;22485;-82
2022/10/03 04:24:07;;;;;;;8.30;3.00;;;;;;;9.09;95.43;96364.66;108305;1268;24227;-83
2022/10/03 04:26:59;;;;;;;4.80;2.50;;;;;;;9.10;95.31;96352.33;108318;1268;22927;-83
2022/10/03 04:29:46;;;;;;;8.00;2.60;;;;;;;9.13;95.00;96356.33;108236;1268;33353;-83
2022/10/03 04:32:48;;;;;;;5.70;3.40;;;;;;;9.17;94.66;96363.30;108330;1268;22618;-83
2022/10/03 04:35:46;;;;;;;5.10;3.10;;;;;;;9.21;94.44;96356.40;108306;1268;25373;-83
2022/10/03 04:38:27;;;;;;;6.60;2.60;;;;;;;9.23;94.50;96367.54;108306;1268;22547;-84
2022/10/03 04:41:05;;;;;;;4.20;2.10;;;;;;;9.19;95.26;96373.98;108375;1268;22533;-84
2022/10/03 04:43:45;;;;;;;6.80;3.30;;;;;;;9.07;95.42;96365.36;108327;1268;24223;-86
2022/10/03 04:46:27;;;;;;;4.20;2.00;;;;;;;8.97;95.19;96352.73;108375;1268;24496;-87
2022/10/03 04:49:04;;;;;;;4.20;2.30;;;;;;;8.97;95.83;96349.67;108284;1268;28447;-84
2022/10/03 04:51:46;;;;;;;4.00;2.10;;;;;;;8.98;96.88;96358.97;108280;1270;24239;-85
2022/10/03 04:54:27;;;;;;;8.80;3.00;;;;;;;8.99;97.66;96368.79;108322;1268;22574;-83
2022/10/03 04:57:08;;;;;;;5.40;2.90;;;;;;;9.00;97.86;96350.49;108348;1268;22598;-82
2022/10/03 04:59:56;;;;;;;7.20;3.20;;;;;;;9.03;98.03;96354.09;108198;1268;36938;-83
2022/10/03 05:02:42;;;;;;;7.80;2.50;;;;;;;9.03;97.94;96348.54;108214;1270;23122;-83
2022/10/03 05:05:35;;;;;;;8.00;3.30;;;;;;;9.05;97.86;96356.30;108285;1270;22542;-82
2022/10/03 05:08:20;;;;;;;7.00;2.40;;;;;;;9.03;98.20;96352.02;108303;1270;22535;-84
2022/10/03 05:11:05;;;;;;;8.30;3.50;;;;;;;9.01;98.59;96358.86;108295;1270;22698;-82
2022/10/03 05:13:54;;;;;;;3.90;2.80;;;;;;;8.99;98.85;96365.03;108255;1270;24357;-83
2022/10/03 05:16:39;;;;;;;6.10;2.80;;;;;;;8.97;99.09;96360.02;108295;1270;22531;-83
2022/10/03 05:19:44;;;;;;;7.50;2.90;;;;;;;8.94;99.30;96362.43;108238;1270;31039;-82
2022/10/03 05:22:25;;;;;;;5.70;2.40;;;;;;;8.91;99.43;96375.98;108270;1270;22711;-83
2022/10/03 05:25:03;;;;;;;5.90;2.10;;;;;;;8.89;99.26;96372.41;108322;1268;22631;-83
2022/10/03 05:27:44;;;;;;;8.20;2.10;;;;;;;8.91;98.90;96364.83;108296;1270;22519;-85
2022/10/03 05:30:21;;;;;;;8.80;3.60;;;;;;;8.89;98.87;96359.19;108203;1270;29290;-83
2022/10/03 05:32:57;;;;;;;4.70;2.40;;;;;;;8.87;99.04;96365.86;108183;1270;24184;-84
2022/10/03 05:35:43;;;;;;;4.20;1.90;;;;;;;8.90;98.92;96367.91;108253;1270;25251;-86
2022/10/03 05:38:33;;;;;;;4.30;2.50;;;;;;;8.91;99.10;96364.67;108289;1270;24248;-85
2022/10/03 05:41:09;;;;;;;6.40;2.70;;;;;;;8.93;99.19;96364.02;108277;1270;22587;-85
2022/10/03 05:43:57;;;;;;;5.10;2.80;;;;;;;8.96;99.11;96367.91;108266;1270;22548;-83
2022/10/03 05:46:57;;;;;;;4.60;2.00;;;;;;;8.95;99.23;96370.78;108281;1270;24253;-83
2022/10/03 05:50:04;;;;;;;6.60;2.80;;;;;;;8.93;99.40;96374.27;108152;1270;28840;-83
2022/10/03 05:52:59;;;;;;;7.20;2.70;;;;;;;8.92;99.15;96363.66;108354;1268;23233;-83
2022/10/03 05:55:45;;;;;;;6.80;2.40;;;;;;;8.91;99.25;96367.48;108340;1268;22562;-84
2022/10/03 05:58:47;;;;;;;7.30;1.80;;;;;;;8.91;99.01;96367.05;108351;1268;23231;-84
2022/10/03 06:01:50;;;;;;;3.30;2.20;;;;;;;8.88;99.14;96378.17;108341;1268;23784;-85
2022/10/03 06:04:53;;;;;;;4.00;2.00;;;;;;;8.83;99.62;96379.20;108209;1268;22636;-84
2022/10/03 06:07:30;;;;;;;4.70;1.80;;;;;;;8.81;99.88;96380.20;108316;1268;22670;-88
2022/10/03 06:10:38;;;;;;;4.90;1.80;;;;;;;8.78;100.00;96390.02;108268;1268;26154;-84
2022/10/03 06:13:19;;;;;;;5.30;2.10;;;;;;;8.76;100.00;96399.42;108291;1269;22582;-85
2022/10/03 06:16:11;;;;;;;5.40;1.50;;;;;;;8.79;99.52;96379.02;108306;1268;22662;-83
2022/10/03 06:19:20;;;;;;;4.90;1.90;;;;;;;8.89;98.26;96388.63;108256;1268;36336;-83
2022/10/03 06:22:28;;;;;;;3.30;1.30;;;;;;;9.02;97.81;96392.11;108282;1270;25370;-82
2022/10/03 06:25:31;;;;;;;3.90;2.00;;;;;;;9.14;97.52;96396.31;108321;1268;22476;-82
2022/10/03 06:28:34;;;;;;;2.60;1.20;;;;;;;9.27;96.51;96404.53;108323;1269;22556;-83
2022/10/03 06:31:48;;;;;;;4.10;1.30;;;;;;;9.38;95.23;96405.89;108367;1268;22632;-82
2022/10/03 06:34:51;;;;;;;3.60;1.40;;;;;;;9.24;94.92;96417.99;108277;1270;22647;-83
2022/10/03 06:37:55;;;;;;;2.70;1.30;;;;;;;9.14;94.84;96406.00;108362;1268;22591;-83
2022/10/03 06:41:04;;;;;;;4.10;1.90;;;;;;;9.05;95.08;96415.95;108260;1269;29016;-83
2022/10/03 06:43:59;;;;;;;3.70;1.90;;;;;;;8.99;95.33;96406.34;108239;1270;23884;-83
2022/10/03 06:46:59;;;;;;;6.60;2.00;;;;;;;8.97;95.71;96392.23;108348;1270;25246;-83
2022/10/03 06:49:51;;;;;;;8.10;2.10;;;;;;;8.98;95.02;96402.64;108230;1268;37569;-82
2022/10/03 06:52:58;;;;;;;7.00;1.90;;;;;;;8.97;94.91;96414.75;108287;1270;23698;-83
2022/10/03 06:55:55;;;;;;;7.00;1.50;;;;;;;8.97;94.33;96413.01;108209;1268;22626;-83
2022/10/03 06:58:53;;;;;;;3.40;1.80;;;;;;;8.99;94.01;96425.73;108259;1268;36006;-82
2022/10/03 07:01:57;;;;;;;6.40;2.00;;;;;;;8.98;94.21;96415.07;108330;1268;24237;-82
2022/10/03 07:04:54;;;;;;;4.30;1.80;;;;;;;8.94;94.76;96420.81;108313;1268;22538;-82
2022/10/03 07:08:01;;;;;;;7.50;1.90;;;;;;;9.00;94.91;96418.02;108327;1268;22529;-82
2022/10/03 07:10:45;;;;;;;6.10;1.90;;;;;;;8.95;95.33;96423.17;108216;1270;27943;-83
2022/10/03 07:13:55;;;;;;;10.20;2.60;;;;;;;8.86;95.98;96422.53;108191;1270;23338;-82
2022/10/03 07:16:49;;;;;;;4.40;1.80;;;;;;;8.81;96.60;96440.52;108221;1270;25380;-83
2022/10/03 07:19:45;;;;;;;3.90;1.70;;;;;;;8.81;96.75;96425.52;108227;1268;30831;-82
2022/10/03 07:22:45;;;;;;;3.20;1.40;;;;;;;8.84;96.63;96441.25;108338;1268;24441;-82
2022/10/03 07:25:31;;;;;;;2.40;1.20;;;;;;;8.90;96.32;96439.13;108333;1268;22550;-82
2022/10/03 07:28:35;;;;;;;4.20;1.90;;;;;;;8.95;95.92;96433.02;108352;1268;22592;-82
2022/10/03 07:31:16;;;;;;;7.60;2.10;;;;;;;8.97;95.86;96449.65;108093;1268;22519;-82
2022/10/03 07:34:33;;;;;;;4.20;1.60;;;;;;;9.01;95.98;96451.77;108316;1268;22621;-82
2022/10/03 07:40:41;;;;;;;6.70;2.80;;;;;;;9.01;95.32;96438.42;108304;1268;23277;-82
2022/10/03 07:43:50;;;;;;;7.20;1.80;;;;;;;9.04;95.49;96444.30;108330;1268;22531;-82
2022/10/03 07:46:57;;;;;;;6.20;1.90;;;;;;;9.05;95.06;96441.85;108329;1268;23135;-82
2022/10/03 07:49:49;;;;;;;3.90;1.50;;;;;;;9.08;94.98;96440.89;108233;1268;24523;-81
2022/10/03 07:52:43;;;;;;;6.40;2.00;;;;;;;9.12;94.80;96444.24;108319;1268;22535;-82
2022/10/03 07:55:37;;;;;;;6.40;2.00;;;;;;;9.14;94.53;96440.90;108327;1268;22562;-82
2022/10/03 07:58:26;;;;;;;2.40;1.10;;;;;;;9.16;94.68;96446.20;108358;1268;22603;-83
2022/10/03 08:01:15;;;;;;;2.80;1.50;;;;;;;9.15;93.92;96431.95;108356;1268;22553;-82
2022/10/03 08:04:21;;;;;;;4.70;1.80;;;;;;;9.13;93.12;96440.32;108324;1268;22530;-82
2022/10/03 08:07:08;;;;;;;4.60;1.50;;;;;;;9.13;93.13;96438.20;108362;1268;23895;-82
2022/10/03 08:09:53;;;;;;;2.70;1.30;;;;;;;9.11;93.04;96436.89;108282;1268;28888;-81
2022/10/03 08:12:58;;;;;;;4.80;1.90;;;;;;;9.13;93.24;96451.21;108329;1268;22658;-82
2022/10/03 08:15:40;;;;;;;4.20;1.70;;;;;;;9.14;92.89;96437.45;108324;1268;24192;-83
2022/10/03 08:18:49;;;;;;;2.50;1.70;;;;;;;9.12;92.88;96455.66;108320;1268;24458;-82
2022/10/03 08:21:29;;;;;;;3.80;1.40;;;;;;;9.11;93.38;96447.69;108305;1268;22540;-82
2022/10/03 08:24:29;;;;;;;4.80;2.20;;;;;;;9.20;93.61;96440.56;108341;1268;22530;-82
2022/10/03 08:27:25;;;;;;;4.70;1.90;;;;;;;9.42;93.63;96445.13;108340;1266;25380;-83
2022/10/03 08:30:22;;;;;;;4.50;1.80;;;;;;;9.44;93.12;96443.92;108220;1269;32476;-83
2022/10/03 08:33:03;;;;;;;5.40;1.70;;;;;;;9.39;93.18;96453.02;108216;1270;22840;-82
2022/10/03 08:36:14;;;;;;;4.50;1.90;;;;;;;9.35;93.32;96453.96;108331;1270;23712;-82
2022/10/03 08:39:22;;;;;;;3.20;1.10;;;;;;;9.26;93.41;96446.18;108226;1270;31737;-82
2022/10/03 08:42:52;;;;;;;5.90;1.80;;;;;;;9.14;93.95;96456.40;108311;1269;22519;-82
2022/10/03 08:45:50;;;;;;;3.40;1.90;;;;;;;9.08;94.23;96449.77;108095;1270;25273;-82
2022/10/03 08:48:55;;;;;;;5.10;2.50;;;;;;;9.07;94.63;96451.57;108294;1270;22700;-83
2022/10/03 08:52:02;;;;;;;5.10;1.60;;;;;;;9.08;94.56;96456.33;108328;1270;22857;-82
2022/10/03 08:55:06;;;;;;;4.50;1.80;;;;;;;9.12;94.74;96451.50;108284;1270;22552;-82
2022/10/03 08:58:11;;;;;;;5.20;1.70;;;;;;;9.21;94.91;96443.94;108274;1270;22679;-82
2022/10/03 09:01:03;;;;;;;6.30;1.80;;;;;;;9.26;94.75;96452.69;108205;1270;31637;-81
2022/10/03 09:04:12;;;;;;;6.00;2.00;;;;;;;9.31;94.75;96455.90;108283;1270;22650;-81
2022/10/03 09:07:07;;;;;;;3.10;1.30;;;;;;;9.33;94.40;96453.19;108350;1270;24352;-82
2022/10/03 09:10:06;;;;;;;4.00;1.80;;;;;;;9.29;93.90;96450.67;108262;1269;32657;-83
2022/10/03 09:13:01;;;;;;;4.30;2.30;;;;;;;9.27;93.45;96449.66;108346;1270;24276;-82
2022/10/03 09:16:06;;;;;;;5.80;1.40;;;;;;;9.23;94.10;96463.34;108343;1270;22679;-82
2022/10/03 09:18:52;;;;;;;6.20;2.10;;;;;;;9.20;94.43;96459.77;108300;1270;27946;-83
2022/10/03 09:21:49;;;;;;;2.40;1.40;;;;;;;9.19;94.38;96456.44;108309;1270;22567;-82
2022/10/03 09:25:05;;;;;;;1.90;1.30;;;;;;;9.21;94.83;96456.74;108308;1270;22537;-84
2022/10/03 09:27:53;;;;;;;7.00;1.90;;;;;;;9.11;95.83;96467.32;108103;1270;22699;-84
2022/10/03 09:30:36;;;;;;;3.00;0.80;;;;;;;9.02;96.57;96474.65;108239;1270;33482;-84
2022/10/03 09:33:54;;;;;;;3.00;1.30;;;;;;;8.95;97.24;96475.84;108296;1270;22575;-83
2022/10/03 09:37:03;;;;;;;2.50;1.20;;;;;;;8.89;97.75;96475.19;108272;1270;22532;-84
2022/10/03 09:40:06;;;;;;;4.90;1.20;;;;;;;8.97;97.84;96477.63;108087;1270;39525;-82
2022/10/03 09:43:05;;;;;;;2.00;0.90;;;;;;;9.17;97.67;96477.23;108208;1270;22537;-82
2022/10/03 09:46:06;;;;;;;2.60;1.20;;;;;;;9.25;96.69;96468.35;108226;1270;22661;-82
2022/10/03 09:49:16;;;;;;;1.40;1.00;;;;;;;9.23;96.42;96475.34;108217;1270;35031;-84
2022/10/03 09:52:02;;;;;;;4.20;1.50;;;;;;;9.18;96.39;96466.60;108107;1269;22592;-81
2022/10/03 09:54:55;;;;;;;1.60;1.00;;;;;;;9.16;96.78;96466.52;108324;1268;24383;-82
2022/10/03 09:57:48;;;;;;;2.00;0.90;;;;;;;9.14;96.97;96478.34;108335;1268;22722;-83
2022/10/03 10:00:24;;;;;;;2.80;1.30;;;;;;;9.10;97.03;96479.95;108260;1268;39693;-81
2022/10/03 10:03:51;;;;;;;2.20;1.00;;;;;;;9.08;97.21;96484.05;108321;1270;23784;-81
2022/10/03 10:06:49;;;;;;;1.00;0.60;;;;;;;9.18;97.27;96481.94;108272;1270;22899;-81
2022/10/03 10:09:47;;;;;;;0.80;0.50;;;;;;;9.29;96.68;96474.27;108270;1268;29178;-81
2022/10/03 10:12:42;;;;;;;1.10;0.70;;;;;;;9.36;95.97;96464.33;108305;1268;22578;-85
2022/10/03 10:15:47;;;;;;;1.10;0.80;;;;;;;9.39;95.82;96466.52;108348;1268;24018;-81
2022/10/03 10:18:49;;;;;;;3.70;1.30;;;;;;;9.37;95.91;96453.21;108350;1268;23351;-82
2022/10/03 10:21:42;;;;;;;3.50;1.40;;;;;;;9.35;96.19;96470.68;108306;1269;22610;-82
2022/10/03 10:24:40;;;;;;;1.40;1.10;;;;;;;9.31;96.27;96472.20;108342;1268;22558;-84
2022/10/03 10:27:45;;;;;;;1.90;1.10;;;;;;;9.23;96.32;96470.74;108373;1268;23920;-83
2022/10/03 10:30:47;;;;;;;2.10;1.20;;;;;;;9.20;96.25;96456.23;108157;1270;24556;-82
2022/10/03 10:34:01;;;;;;;2.20;0.90;;;;;;;9.18;96.26;96457.14;108297;1270;22533;-81
2022/10/03 10:37:28;;;;;;;4.80;1.20;;;;;;;9.19;96.36;96442.36;108323;1270;24231;-82
2022/10/03 10:40:30;;;;;;;3.20;1.20;;;;;;;9.24;96.63;96452.38;108148;1268;23460;-82
2022/10/03 10:43:30;;;;;;;1.50;0.60;;;;;;;9.27;96.69;96450.14;108317;1268;25217;-82
2022/10/03 10:46:39;;;;;;;4.50;0.80;;;;;;;9.33;96.18;96438.43;108264;1268;25293;-82
2022/10/03 10:49:37;;;;;;;2.30;1.50;;;;;;;9.33;95.91;96462.66;108255;1268;30495;-82
2022/10/03 10:52:38;;;;;;;2.00;1.20;;;;;;;9.33;95.81;96458.32;108292;1270;23498;-82
2022/10/03 10:55:44;;;;;;;2.20;1.10;;;;;;;9.33;95.75;96460.07;108328;1270;23927;-81
2022/10/03 10:58:49;;;;;;;2.00;1.20;;;;;;;9.33;95.50;96465.84;108288;1270;22723;-83
2022/10/03 11:02:03;;;;;;;3.70;0.90;;;;;;;9.34;95.03;96453.27;108180;1270;22645;-82
2022/10/03 11:05:20;;;;;;;1.20;0.90;;;;;;;9.38;94.77;96455.68;108273;1270;22526;-82
2022/10/03 11:08:27;;;;;;;2.20;1.00;;;;;;;9.39;94.69;96454.98;108227;1270;22655;-82
2022/10/03 11:11:34;;;;;;;1.60;1.20;;;;;;;9.40;94.76;96443.45;108243;1268;23154;-83
2022/10/03 11:14:42;;;;;;;1.90;1.20;;;;;;;9.39;94.76;96453.09;108244;1270;22543;-83
2022/10/03 11:17:39;;;;;;;1.20;0.60;;;;;;;9.35;94.89;96457.56;108310;1268;22542;-83
2022/10/03 11:20:59;;;;;;;1.30;0.90;;;;;;;9.34;94.84;96448.31;108209;1270;42700;-82
2022/10/03 11:23:59;;;;;;;1.00;0.80;;;;;;;9.35;95.33;96453.91;108329;1269;24269;-82
2022/10/03 11:27:15;;;;;;;1.40;1.00;;;;;;;9.29;96.37;96464.37;108347;1270;22659;-83
2022/10/03 11:30:18;;;;;;;0.90;0.70;;;;;;;9.22;97.47;96461.49;108134;1270;32595;-84
2022/10/03 11:33:35;;;;;;;2.30;1.00;;;;;;;9.14;98.35;96476.14;108287;1270;26045;-82
2022/10/03 11:36:24;;;;;;;1.60;1.10;;;;;;;9.10;98.49;96478.69;108276;1270;24236;-82
2022/10/03 11:39:03;;;;;;;1.70;0.90;;;;;;;9.10;98.72;96472.92;108255;1269;25372;-83
2022/10/03 11:41:50;;;;;;;1.70;0.90;;;;;;;9.11;98.79;96469.31;108228;1270;22574;-84
2022/10/03 11:44:30;;;;;;;4.20;1.50;;;;;;;9.08;98.95;96459.88;108205;1270;24193;-84
2022/10/03 11:47:34;;;;;;;2.50;1.30;;;;;;;9.06;99.33;96475.96;108288;1270;25399;-82
2022/10/03 11:50:30;;;;;;;2.40;1.30;;;;;;;9.07;99.37;96470.61;108251;1270;39300;-84
2022/10/03 11:53:22;;;;;;;2.20;1.50;;;;;;;9.08;99.61;96478.44;108360;1269;22535;-82
2022/10/03 11:56:08;;;;;;;2.00;1.00;;;;;;;9.10;99.92;96464.14;108379;1270;24054;-82
2022/10/03 11:58:55;;;;;;;0.90;0.90;;;;;;;9.12;100.00;96462.48;108307;1268;33052;-82
2022/10/03 12:01:45;;;;;;;1.30;0.80;;;;;;;9.14;100.00;96472.95;108310;1268;25367;-82
2022/10/03 12:04:26;;;;;;;2.30;1.30;;;;;;;9.14;100.00;96473.73;108360;1268;22662;-83
2022/10/03 12:10:04;;;;;;;2.60;1.40;;;;;;;9.14;100.00;96469.09;108257;1270;29700;-82
2022/10/03 12:12:44;;;;;;;1.30;1.10;;;;;;;9.10;100.00;96493.28;108336;1268;22579;-82
2022/10/03 12:15:33;;;;;;;2.00;1.40;;;;;;;9.10;100.00;96492.65;108343;1268;22542;-82
2022/10/03 12:18:21;;;;;;;3.90;1.40;;;;;;;9.14;100.00;96504.64;108327;1269;22569;-83
2022/10/03 12:21:07;;;;;;;2.80;1.20;;;;;;;9.18;100.00;96496.17;108353;1268;22574;-82
2022/10/03 12:23:54;;;;;;;1.70;1.00;;;;;;;9.18;100.00;96500.40;108298;1270;22552;-82
2022/10/03 12:26:41;;;;;;;1.30;1.20;;;;;;;9.16;100.00;96499.36;108300;1270;23045;-81
2022/10/03 12:29:18;;;;;;;1.30;1.20;;;;;;;9.13;100.00;96495.54;108255;1270;34312;-81
2022/10/03 12:32:02;;;;;;;1.40;1.00;;;;;;;9.12;100.00;96497.08;108332;1268;23778;-81
2022/10/03 12:34:40;;;;;;;2.00;1.00;;;;;;;9.15;100.00;96498.25;108318;1268;22558;-81
2022/10/03 12:37:33;;;;;;;1.40;1.20;;;;;;;9.14;100.00;96501.21;108358;1268;22632;-81
2022/10/03 12:40:14;;;;;;;2.20;1.20;;;;;;;9.12;100.00;96503.00;108266;1270;27123;-82
2022/10/03 12:42:54;;;;;;;1.30;1.10;;;;;;;9.10;100.00;96511.00;108235;1270;22543;-81
2022/10/03 12:45:33;;;;;;;1.00;0.90;;;;;;;9.09;100.00;96497.89;108305;1270;23366;-82
2022/10/03 12:48:35;;;;;;;3.50;1.50;;;;;;;9.08;100.00;96507.31;108211;1270;22533;-81
2022/10/03 12:51:21;;;;;;;0.80;0.70;;;;;;;9.09;100.00;96514.92;108311;1270;22603;-81
2022/10/03 12:54:07;;;;;;;2.90;1.40;;;;;;;9.10;100.00;96516.66;108239;1270;22542;-82
2022/10/03 12:56:48;;;;;;;2.10;1.70;;;;;;;9.11;100.00;96514.86;108312;1270;22566;-82
2022/10/03 12:59:34;;;;;;;1.50;1.10;;;;;;;9.11;100.00;96514.39;108265;1268;27901;-82
2022/10/03 13:02:29;;;;;;;2.90;2.00;;;;;;;9.06;100.00;96523.45;108352;1270;23778;-81
2022/10/03 13:05:24;;;;;;;1.80;1.20;;;;;;;9.05;100.00;96520.83;108373;1268;22656;-83
2022/10/03 13:08:02;;;;;;;3.80;1.70;;;;;;;9.03;100.00;96526.39;108342;1268;23723;-82
2022/10/03 13:10:42;;;;;;;3.60;1.40;;;;;;;9.05;100.00;96526.27;108173;1270;28712;-83
2022/10/03 13:13:32;;;;;;;2.80;1.40;;;;;;;9.05;100.00;96540.17;108297;1270;22603;-82
2022/10/03 13:16:24;;;;;;;3.50;1.20;;;;;;;9.10;100.00;96529.30;108269;1270;24981;-82
2022/10/03 13:19:00;;;;;;;2.90;2.00;;;;;;;9.12;100.00;96533.95;108255;1270;25308;-82
2022/10/03 13:22:02;;;;;;;2.90;1.70;;;;;;;9.14;100.00;96529.66;108368;1270;22735;-82
2022/10/03 13:24:40;;;;;;;3.00;1.80;;;;;;;9.18;100.00;96522.14;108311;1270;25378;-82
2022/10/03 13:27:31;;;;;;;3.10;2.00;;;;;;;9.20;100.00;96529.27;108313;1269;22705;-83
2022/10/03 13:30:14;;;;;;;3.50;1.60;;;;;;;9.23;100.00;96531.48;108219;1270;27338;-82
2022/10/03 13:32:50;;;;;;;2.90;1.70;;;;;;;9.21;100.00;96522.81;108267;1270;22533;-82
2022/10/03 13:38:54;;;;;;;3.00;1.70;;;;;;;9.15;100.00;96515.97;108280;1270;22841;-82
2022/10/03 13:41:34;;;;;;;2.40;1.60;;;;;;;9.10;100.00;96513.17;108292;1270;23716;-84
2022/10/03 13:44:15;;;;;;;2.30;1.40;;;;;;;9.10;100.00;96511.00;108262;1270;22557;-82
2022/10/03 13:46:53;;;;;;;1.90;1.40;;;;;;;9.13;100.00;96506.54;108278;1270;24350;-82
2022/10/03 13:49:33;;;;;;;3.20;1.60;;;;;;;9.18;100.00;96495.91;108212;1270;34657;-82